createdAt,value
2019-04-21T00:01:54.540Z,19.32
2019-04-21T00:04:39.220Z,21.30
2019-04-21T00:07:17.561Z,19.95
2019-04-21T00:09:45.490Z,18.45
2019-04-21T00:12:13.767Z,21.70
2019-04-21T00:14:39.799Z,17.15
2019-04-21T00:17:03.099Z,18.45
2019-04-21T00:19:30.618Z,18.52
2019-04-21T00:22:08.563Z,18.30
2019-04-21T00:24:41.255Z,15.68
2019-04-21T00:27:15.602Z,19.32
2019-04-21T00:29:49.782Z,19.25
2019-04-21T00:32:16.708Z,18.17
2019-04-21T00:34:30.182Z,17.32
2019-04-21T00:37:11.279Z,18.65
2019-04-21T00:39:58.782Z,18.23
2019-04-21T00:42:18.172Z,16.23
2019-04-21T00:44:47.313Z,12.80
2019-04-21T00:47:28.574Z,13.93
2019-04-21T00:49:59.092Z,15.88
2019-04-21T00:52:39.892Z,17.85
2019-04-21T00:55:10.058Z,14.23
2019-04-21T00:57:38.870Z,15.32
2019-04-21T01:02:39.922Z,14.58
2019-04-21T01:05:04.968Z,14.25
2019-04-21T01:07:32.002Z,13.28
2019-04-21T01:09:52.590Z,17.80
2019-04-21T01:12:33.349Z,15.95
2019-04-21T01:15:11.711Z,17.90
2019-04-21T01:17:38.261Z,15.83
2019-04-21T01:19:57.415Z,15.63
2019-04-21T01:22:13.107Z,16.77
2019-04-21T01:24:46.361Z,15.18
2019-04-21T01:27:22.514Z,15.23
2019-04-21T01:30:08.558Z,14.43
2019-04-21T01:32:35.962Z,16.05
2019-04-21T01:35:04.011Z,15.15
2019-04-21T01:37:42.128Z,14.47
2019-04-21T01:40:14.349Z,13.55
2019-04-21T01:42:59.578Z,14.30
2019-04-21T01:45:26.696Z,16.97
2019-04-21T01:47:59.421Z,18.60
2019-04-21T01:50:28.936Z,14.60
2019-04-21T01:53:03.980Z,16.10
2019-04-21T01:55:46.740Z,12.13
2019-04-21T01:58:12.429Z,17.55
2019-04-21T02:00:43.896Z,18.62
2019-04-21T02:03:34.507Z,13.23
2019-04-21T02:05:52.023Z,13.65
2019-04-21T02:08:20.125Z,14.80
2019-04-21T02:10:58.777Z,18.45
2019-04-21T02:13:17.136Z,17.10
2019-04-21T02:15:56.351Z,14.10
2019-04-21T02:18:25.963Z,14.10
2019-04-21T02:20:41.049Z,18.23
2019-04-21T02:23:34.750Z,17.57
2019-04-21T02:25:50.946Z,13.78
2019-04-21T02:28:30.841Z,15.75
2019-04-21T02:33:39.223Z,13.70
2019-04-21T02:38:40.169Z,15.98
2019-04-21T02:40:57.513Z,14.98
2019-04-21T02:43:52.135Z,18.63
2019-04-21T02:46:19.407Z,15.38
2019-04-21T02:48:38.990Z,18.25
2019-04-21T02:54:24.434Z,15.08
2019-04-21T02:56:09.670Z,19.65
2019-04-21T02:59:06.732Z,13.48
2019-04-21T03:04:10.188Z,16.97
2019-04-21T03:07:03.766Z,19.05
2019-04-21T03:09:30.834Z,14.38
2019-04-21T03:12:05.574Z,12.45
2019-04-21T03:14:40.840Z,16.57
2019-04-21T03:16:52.789Z,15.40
2019-04-21T03:19:37.949Z,15.90
2019-04-21T03:21:57.307Z,14.33
2019-04-21T03:24:29.391Z,14.93
2019-04-21T03:27:12.102Z,14.83
2019-04-21T03:29:46.251Z,15.28
2019-04-21T03:39:31.005Z,17.27
2019-04-21T03:42:11.366Z,13.58
2019-04-21T03:44:32.479Z,14.40
2019-04-21T03:47:06.988Z,14.25
2019-04-21T03:49:43.677Z,16.57
2019-04-21T03:52:11.991Z,15.55
2019-04-21T03:54:37.621Z,15.77
2019-04-21T03:59:38.536Z,17.20
2019-04-21T04:02:05.825Z,32.17
2019-04-21T04:04:53.024Z,89.63
2019-04-21T04:07:44.226Z,94.03
2019-04-21T04:10:07.751Z,102.57
2019-04-21T04:15:06.836Z,34.78
2019-04-21T04:20:03.918Z,22.00
2019-04-21T04:30:10.331Z,30.77
2019-04-21T04:32:34.796Z,27.60
2019-04-21T04:35:10.074Z,20.20
2019-04-21T04:37:40.557Z,15.60
2019-04-21T04:42:56.466Z,14.45
2019-04-21T04:45:24.082Z,20.07
2019-04-21T04:47:43.084Z,16.90
2019-04-21T04:50:10.334Z,15.75
2019-04-21T04:52:45.726Z,19.07
2019-04-21T04:57:53.075Z,18.07
2019-04-21T05:00:19.724Z,18.23
2019-04-21T05:02:46.360Z,21.30
2019-04-21T05:05:19.497Z,19.07
2019-04-21T05:07:52.210Z,20.05
2019-04-21T05:10:17.265Z,19.45
2019-04-21T05:12:44.206Z,18.12
2019-04-21T05:15:11.417Z,16.80
2019-04-21T05:17:49.179Z,22.22
2019-04-21T05:20:15.646Z,17.90
2019-04-21T05:22:42.625Z,20.48
2019-04-21T05:25:06.855Z,21.20
2019-04-21T05:27:38.352Z,25.97
2019-04-21T05:30:22.146Z,22.73
2019-04-21T05:33:03.981Z,20.57
2019-04-21T05:35:46.189Z,26.02
2019-04-21T05:38:16.785Z,19.70
2019-04-21T05:40:38.935Z,21.23
2019-04-21T05:43:26.351Z,22.20
2019-04-21T05:45:51.948Z,17.92
2019-04-21T05:48:28.285Z,18.85
2019-04-21T05:50:54.052Z,16.02
2019-04-21T05:56:05.072Z,17.40
2019-04-21T05:58:33.389Z,19.67
2019-04-21T06:01:25.570Z,17.17
2019-04-21T06:03:41.096Z,19.48
2019-04-21T06:08:37.223Z,16.90
2019-04-21T06:11:10.480Z,17.70
2019-04-21T06:13:42.866Z,15.23
2019-04-21T06:16:07.355Z,13.58
2019-04-21T06:18:43.360Z,16.00
2019-04-21T06:23:36.300Z,14.50
2019-04-21T06:28:41.465Z,15.35
2019-04-21T06:31:11.183Z,21.52
2019-04-21T06:33:43.390Z,17.00
2019-04-21T06:36:31.127Z,17.82
2019-04-21T06:39:01.915Z,17.77
2019-04-21T06:41:27.781Z,17.25
2019-04-21T06:44:09.500Z,15.60
2019-04-21T06:46:27.840Z,15.25
2019-04-21T06:48:58.351Z,16.12
2019-04-21T06:51:22.470Z,13.18
2019-04-21T06:53:59.278Z,18.07
2019-04-21T06:56:23.623Z,18.75
2019-04-21T06:58:51.486Z,23.15
2019-04-21T07:01:26.539Z,23.85
2019-04-21T07:04:01.752Z,20.00
2019-04-21T07:06:24.140Z,17.77
2019-04-21T07:09:03.113Z,19.92
2019-04-21T07:11:21.604Z,19.90
2019-04-21T07:13:55.279Z,30.00
2019-04-21T07:16:25.474Z,23.35
2019-04-21T07:19:04.645Z,21.93
2019-04-21T07:21:31.079Z,13.00
2019-04-21T07:24:03.154Z,12.85
2019-04-21T07:26:28.290Z,13.25
2019-04-21T07:29:05.790Z,11.85
2019-04-21T07:31:31.690Z,11.20
2019-04-21T07:34:00.216Z,11.08
2019-04-21T07:36:42.990Z,15.88
2019-04-21T07:38:55.375Z,11.88
2019-04-21T07:41:18.618Z,13.08
2019-04-21T07:43:51.035Z,11.45
2019-04-21T07:46:22.550Z,13.90
2019-04-21T07:49:03.701Z,11.50
2019-04-21T07:51:42.247Z,12.35
2019-04-21T07:54:20.152Z,10.03
2019-04-21T07:56:24.509Z,14.80
2019-04-21T07:59:10.806Z,14.10
2019-04-21T08:01:45.315Z,13.68
2019-04-21T08:04:33.530Z,14.28
2019-04-21T08:09:13.703Z,11.20
2019-04-21T08:11:37.050Z,14.05
2019-04-21T08:14:19.487Z,13.70
2019-04-21T08:16:45.050Z,14.30
2019-04-21T08:19:12.923Z,12.93
2019-04-21T08:21:53.080Z,14.65
2019-04-21T08:24:16.299Z,17.37
2019-04-21T08:26:57.595Z,16.02
2019-04-21T08:29:33.468Z,13.55
2019-04-21T08:34:21.534Z,14.15
2019-04-21T08:36:46.498Z,13.38
2019-04-21T08:39:24.123Z,13.50
2019-04-21T08:41:51.209Z,12.73
2019-04-21T08:44:25.826Z,13.75
2019-04-21T08:46:52.729Z,18.50
2019-04-21T08:49:20.580Z,15.18
2019-04-21T08:51:53.876Z,14.47
2019-04-21T08:54:23.128Z,17.23
2019-04-21T08:56:52.894Z,15.78
2019-04-21T08:59:31.489Z,15.05
2019-04-21T09:02:03.020Z,14.50
2019-04-21T09:04:29.244Z,12.93
2019-04-21T09:09:39.630Z,16.57
2019-04-21T09:11:59.110Z,13.03
2019-04-21T09:14:34.876Z,13.65
2019-04-21T09:16:56.484Z,13.25
2019-04-21T09:19:46.407Z,12.75
2019-04-21T09:22:02.255Z,13.98
2019-04-21T09:24:33.627Z,15.35
2019-04-21T09:27:03.835Z,12.88
2019-04-21T09:29:26.462Z,12.65
2019-04-21T09:31:48.512Z,13.22
2019-04-21T09:34:27.177Z,13.80
2019-04-21T09:36:51.511Z,16.35
2019-04-21T09:39:20.722Z,14.35
2019-04-21T09:41:53.702Z,14.23
2019-04-21T09:44:25.941Z,14.00
2019-04-21T09:46:54.097Z,14.07
2019-04-21T09:49:23.931Z,13.03
2019-04-21T09:51:50.501Z,12.15
2019-04-21T09:54:24.788Z,12.13
2019-04-21T09:56:57.904Z,11.00
2019-04-21T09:59:28.021Z,13.03
2019-04-21T10:02:01.850Z,12.78
2019-04-21T10:04:23.098Z,12.43
2019-04-21T10:06:52.081Z,12.82
2019-04-21T10:09:21.750Z,9.13
2019-04-21T10:11:50.729Z,11.28
2019-04-21T10:14:19.798Z,11.78
2019-04-21T10:16:54.120Z,11.20
2019-04-21T10:19:25.558Z,11.55
2019-04-21T10:21:56.551Z,11.80
2019-04-21T10:24:26.400Z,9.20
2019-04-21T10:26:55.479Z,12.50
2019-04-21T10:29:28.849Z,9.85
2019-04-21T10:31:55.283Z,8.33
2019-04-21T10:34:25.216Z,10.70
2019-04-21T10:36:55.236Z,10.88
2019-04-21T10:39:24.029Z,12.15
2019-04-21T10:41:53.288Z,12.30
2019-04-21T10:44:23.177Z,13.50
2019-04-21T10:46:54.041Z,12.73
2019-04-21T10:49:22.606Z,9.95
2019-04-21T10:51:51.374Z,13.20
2019-04-21T10:54:20.193Z,15.48
2019-04-21T10:56:49.524Z,10.10
2019-04-21T10:59:20.482Z,15.90
2019-04-21T11:01:50.459Z,12.82
2019-04-21T11:04:25.424Z,13.32
2019-04-21T11:06:52.535Z,13.32
2019-04-21T11:09:22.034Z,11.83
2019-04-21T11:11:53.200Z,17.60
2019-04-21T11:14:21.331Z,13.88
2019-04-21T11:16:52.609Z,14.83
2019-04-21T11:19:20.169Z,15.40
2019-04-21T11:21:49.332Z,14.80
2019-04-21T11:24:18.270Z,14.47
2019-04-21T11:26:47.735Z,12.85
2019-04-21T11:29:21.129Z,12.55
2019-04-21T11:31:51.256Z,17.30
2019-04-21T11:34:21.104Z,17.20
2019-04-21T11:36:50.235Z,17.45
2019-04-21T11:39:35.223Z,13.22
2019-04-21T11:41:54.312Z,12.93
2019-04-21T11:44:24.734Z,11.25
2019-04-21T11:46:54.294Z,15.18
2019-04-21T11:49:24.281Z,15.68
2019-04-21T11:51:53.524Z,15.70
2019-04-21T11:54:22.563Z,14.53
2019-04-21T11:56:52.762Z,17.70
2019-04-21T11:59:21.813Z,13.15
2019-04-21T12:01:51.732Z,12.55
2019-04-21T12:04:21.263Z,12.85
2019-04-21T12:06:52.175Z,12.82
2019-04-21T12:09:20.985Z,12.05
2019-04-21T12:11:49.786Z,12.45
2019-04-21T12:14:19.906Z,15.72
2019-04-21T12:16:49.018Z,12.20
2019-04-21T12:19:18.681Z,13.10
2019-04-21T12:22:00.410Z,13.25
2019-04-21T12:24:17.903Z,12.70
2019-04-21T12:26:46.586Z,13.15
2019-04-21T12:29:16.705Z,11.43
2019-04-21T12:31:53.873Z,10.00
2019-04-21T12:34:23.796Z,7.70
2019-04-21T12:36:52.874Z,8.43
2019-04-21T12:39:23.005Z,8.10
2019-04-21T12:41:51.860Z,7.95
2019-04-21T12:44:20.560Z,6.95
2019-04-21T12:46:49.836Z,6.83
2019-04-21T12:49:19.973Z,7.80
2019-04-21T12:51:48.967Z,7.83
2019-04-21T12:54:17.629Z,9.93
2019-04-21T12:56:47.639Z,7.17
2019-04-21T12:59:16.946Z,7.92
2019-04-21T13:01:45.880Z,6.95
2019-04-21T13:04:15.606Z,8.05
2019-04-21T13:06:45.698Z,5.83
2019-04-21T13:09:17.983Z,7.45
2019-04-21T13:11:45.115Z,7.10
2019-04-21T13:14:13.807Z,7.30
2019-04-21T13:16:43.395Z,7.50
2019-04-21T13:19:13.359Z,7.83
2019-04-21T13:21:42.397Z,5.65
2019-04-21T13:24:11.651Z,5.60
2019-04-21T13:26:48.391Z,6.78
2019-04-21T13:29:12.173Z,8.05
2019-04-21T13:31:42.410Z,5.95
2019-04-21T13:34:11.039Z,6.22
2019-04-21T13:36:39.635Z,7.45
2019-04-21T13:39:52.263Z,5.70
2019-04-21T13:42:07.531Z,6.72
2019-04-21T13:44:28.898Z,6.17
2019-04-21T13:46:58.754Z,6.47
2019-04-21T13:49:27.462Z,6.75
2019-04-21T13:51:56.195Z,8.83
2019-04-21T13:54:25.747Z,5.50
2019-04-21T13:56:54.516Z,8.38
2019-04-21T13:59:24.469Z,5.58
2019-04-21T14:01:54.009Z,5.17
2019-04-21T14:04:23.635Z,6.08
2019-04-21T14:06:52.335Z,4.97
2019-04-21T14:09:21.866Z,4.72
2019-04-21T14:11:53.523Z,6.00
2019-04-21T14:14:20.883Z,4.80
2019-04-21T14:16:49.891Z,5.42
2019-04-21T14:19:19.318Z,5.80
2019-04-21T14:21:50.848Z,7.58
2019-04-21T14:24:19.072Z,6.40
2019-04-21T14:26:48.010Z,5.47
2019-04-21T14:29:17.574Z,6.65
2019-04-21T14:31:46.523Z,5.28
2019-04-21T14:34:16.319Z,5.22
2019-04-21T14:36:46.582Z,4.80
2019-04-21T14:39:16.573Z,8.58
2019-04-21T14:41:46.400Z,5.92
2019-04-21T14:44:15.308Z,5.80
2019-04-21T14:46:49.166Z,6.03
2019-04-21T14:49:19.560Z,5.53
2019-04-21T14:52:03.156Z,5.92
2019-04-21T14:54:33.558Z,5.53
2019-04-21T14:57:03.384Z,6.87
2019-04-21T14:59:33.262Z,5.87
2019-04-21T15:02:02.177Z,6.62
2019-04-21T15:04:31.539Z,5.90
2019-04-21T15:07:01.303Z,4.70
2019-04-21T15:09:31.527Z,5.67
2019-04-21T15:12:02.262Z,5.53
2019-04-21T15:14:31.901Z,4.37
2019-04-21T15:17:00.950Z,5.00
2019-04-21T15:19:30.823Z,6.53
2019-04-21T15:22:00.695Z,6.80
2019-04-21T15:24:30.166Z,5.60
2019-04-21T15:26:59.129Z,4.90
2019-04-21T15:29:28.951Z,7.30
2019-04-21T15:31:58.801Z,7.15
2019-04-21T15:34:27.734Z,5.97
2019-04-21T15:36:57.814Z,6.95
2019-04-21T15:39:27.992Z,6.17
2019-04-21T15:41:56.964Z,7.00
2019-04-21T15:44:26.959Z,7.17
2019-04-21T15:46:55.835Z,9.28
2019-04-21T15:49:28.316Z,7.17
2019-04-21T15:51:58.006Z,7.70
2019-04-21T15:54:28.819Z,6.90
2019-04-21T15:57:00.631Z,9.08
2019-04-21T15:59:31.029Z,6.58
2019-04-21T16:02:01.271Z,6.22
2019-04-21T16:04:30.699Z,6.40
2019-04-21T16:06:59.563Z,6.05
2019-04-21T16:09:30.612Z,7.25
2019-04-21T16:11:59.885Z,7.75
2019-04-21T16:14:29.095Z,10.38
2019-04-21T16:16:59.155Z,7.45
2019-04-21T16:19:29.287Z,9.70
2019-04-21T16:21:59.045Z,6.62
2019-04-21T16:24:27.857Z,6.33
2019-04-21T16:26:56.627Z,6.55
2019-04-21T16:29:27.235Z,7.60
2019-04-21T16:31:57.316Z,9.28
2019-04-21T16:34:37.850Z,7.17
2019-04-21T16:36:56.443Z,9.28
2019-04-21T16:39:25.354Z,10.65
2019-04-21T16:41:54.274Z,7.22
2019-04-21T16:44:23.122Z,9.68
2019-04-21T16:46:51.884Z,7.53
2019-04-21T16:49:21.961Z,10.25
2019-04-21T16:51:53.934Z,7.12
2019-04-21T16:54:28.161Z,9.20
2019-04-21T16:56:59.802Z,9.33
2019-04-21T16:59:30.615Z,8.15
2019-04-21T17:02:00.571Z,13.58
2019-04-21T17:04:30.588Z,8.55
2019-04-21T17:07:00.873Z,9.55
2019-04-21T17:09:30.651Z,9.28
2019-04-21T17:12:03.266Z,9.13
2019-04-21T17:14:48.271Z,9.88
2019-04-21T17:17:27.147Z,9.85
2019-04-21T17:19:37.051Z,9.53
2019-04-21T17:22:01.776Z,14.85
2019-04-21T17:24:30.790Z,11.50
2019-04-21T17:26:59.639Z,18.95
2019-04-21T17:29:28.525Z,10.82
2019-04-21T17:31:59.727Z,10.40
2019-04-21T17:34:31.877Z,15.32
2019-04-21T17:37:01.012Z,14.05
2019-04-21T17:39:31.114Z,15.00
2019-04-21T17:42:13.021Z,14.98
2019-04-21T17:44:30.141Z,12.90
2019-04-21T17:47:05.202Z,14.83
2019-04-21T17:49:30.910Z,12.55
2019-04-21T17:52:07.966Z,10.58
2019-04-21T17:54:44.799Z,16.42
2019-04-21T17:57:26.130Z,11.83
2019-04-21T18:00:04.169Z,11.45
2019-04-21T18:02:34.026Z,11.53
2019-04-21T18:05:03.663Z,16.60
2019-04-21T18:07:31.495Z,15.53
2019-04-21T18:10:04.284Z,17.90
2019-04-21T18:12:32.219Z,18.70
2019-04-21T18:14:56.577Z,15.10
2019-04-21T18:17:16.428Z,23.12
2019-04-21T18:19:47.876Z,26.42
2019-04-21T18:22:31.320Z,26.70
2019-04-21T18:25:03.748Z,36.98
2019-04-21T18:27:27.824Z,33.35
2019-04-21T18:29:59.984Z,23.47
2019-04-21T18:32:34.134Z,24.07
2019-04-21T18:35:13.525Z,17.23
2019-04-21T18:37:47.800Z,21.65
2019-04-21T18:40:20.527Z,24.90
2019-04-21T18:43:16.009Z,24.32
2019-04-21T18:45:48.047Z,24.82
2019-04-21T18:48:04.973Z,26.95
2019-04-21T18:50:41.752Z,24.20
2019-04-21T18:53:40.074Z,23.15
2019-04-21T18:55:56.243Z,27.82
2019-04-21T18:58:20.589Z,32.40
2019-04-21T19:00:51.134Z,33.10
2019-04-21T19:03:28.283Z,26.15
2019-04-21T19:05:54.437Z,21.75
2019-04-21T19:08:40.464Z,29.77
2019-04-21T19:11:13.657Z,29.70
2019-04-21T19:13:59.828Z,34.75
2019-04-21T19:18:51.682Z,24.18
2019-04-21T19:21:12.861Z,24.50
2019-04-21T19:24:01.566Z,30.52
2019-04-21T19:26:27.047Z,32.23
2019-04-21T19:28:47.295Z,33.88
2019-04-21T19:31:20.829Z,35.17
2019-04-21T19:33:36.489Z,46.18
2019-04-21T19:35:57.462Z,49.53
2019-04-21T19:38:34.976Z,33.88
2019-04-21T19:41:15.792Z,44.98
2019-04-21T19:43:49.252Z,30.52
2019-04-21T19:46:14.096Z,31.42
2019-04-21T19:48:54.115Z,32.05
2019-04-21T19:51:15.075Z,27.02
2019-04-21T19:53:41.558Z,29.72
2019-04-21T19:56:00.135Z,30.55
2019-04-21T19:58:33.856Z,29.92
2019-04-21T20:00:59.725Z,35.43
2019-04-21T20:03:28.591Z,27.98
2019-04-21T20:06:05.921Z,24.10
2019-04-21T20:08:42.231Z,21.30
2019-04-21T20:11:18.167Z,21.35
2019-04-21T20:14:03.230Z,20.32
2019-04-21T20:16:19.120Z,32.40
2019-04-21T20:18:37.872Z,22.40
2019-04-21T20:20:59.558Z,24.47
2019-04-21T20:23:32.677Z,21.17
2019-04-21T20:26:02.719Z,24.45
2019-04-21T20:28:43.994Z,18.55
2019-04-21T20:31:20.526Z,25.20
2019-04-21T20:33:53.900Z,24.80
2019-04-21T20:36:23.713Z,24.50
2019-04-21T20:38:44.454Z,23.12
2019-04-21T20:41:18.024Z,25.90
2019-04-21T20:43:51.362Z,26.82
2019-04-21T20:46:23.491Z,25.32
2019-04-21T20:48:46.487Z,25.68
2019-04-21T20:51:22.247Z,23.65
2019-04-21T20:53:50.305Z,24.80
2019-04-21T20:56:13.065Z,19.15
2019-04-21T20:58:50.336Z,25.08
2019-04-21T21:01:33.101Z,27.20
2019-04-21T21:03:48.891Z,24.30
2019-04-21T21:06:21.869Z,38.08
2019-04-21T21:08:55.197Z,27.17
2019-04-21T21:11:23.196Z,26.15
2019-04-21T21:13:54.020Z,27.73
2019-04-21T21:16:30.801Z,22.98
2019-04-21T21:19:15.774Z,23.70
2019-04-21T21:21:27.939Z,22.90
2019-04-21T21:23:53.491Z,24.82
2019-04-21T21:26:31.280Z,28.55
2019-04-21T21:28:52.063Z,29.48
2019-04-21T21:31:31.273Z,25.02
2019-04-21T21:34:02.305Z,30.92
2019-04-21T21:36:27.299Z,20.65
2019-04-21T21:38:58.573Z,21.70
2019-04-21T21:41:22.379Z,20.08
2019-04-21T21:43:45.232Z,16.37
2019-04-21T21:46:28.360Z,21.68
2019-04-21T21:49:01.278Z,16.20
2019-04-21T21:51:22.815Z,24.90
2019-04-21T21:53:45.645Z,27.25
2019-04-21T21:56:14.677Z,23.02
2019-04-21T21:58:45.920Z,19.70
2019-04-21T22:01:20.529Z,23.85
2019-04-21T22:03:47.245Z,55.28
2019-04-21T22:06:21.517Z,92.57
2019-04-21T22:08:46.877Z,49.77
2019-04-21T22:11:18.025Z,33.73
2019-04-21T22:13:54.797Z,26.90
2019-04-21T22:16:19.532Z,31.20
2019-04-21T22:19:06.911Z,28.70
2019-04-21T22:21:38.631Z,28.98
2019-04-21T22:23:59.330Z,23.57
2019-04-21T22:26:18.948Z,19.37
2019-04-21T22:28:47.762Z,15.32
2019-04-21T22:31:21.190Z,13.83
2019-04-21T22:33:50.303Z,16.05
2019-04-21T22:36:29.924Z,16.75
2019-04-21T22:39:01.591Z,15.85
2019-04-21T22:41:26.632Z,17.85
2019-04-21T22:43:51.679Z,13.58
2019-04-21T22:46:18.327Z,23.85
2019-04-21T22:48:55.917Z,24.75
2019-04-21T22:51:25.405Z,18.10
2019-04-21T22:53:50.786Z,15.38
2019-04-21T22:56:25.580Z,13.05
2019-04-21T22:58:49.671Z,12.35
2019-04-21T23:01:26.702Z,14.90
2019-04-21T23:03:54.686Z,14.20
2019-04-21T23:06:24.746Z,14.95
2019-04-21T23:08:51.115Z,14.47
2019-04-21T23:11:21.441Z,15.63
2019-04-21T23:13:55.663Z,19.27
2019-04-21T23:16:26.076Z,18.57
2019-04-21T23:19:11.543Z,17.87
2019-04-21T23:21:36.258Z,21.90
2019-04-21T23:24:10.107Z,21.80
2019-04-21T23:26:40.749Z,21.27
2019-04-21T23:29:13.925Z,28.80
2019-04-21T23:31:39.867Z,23.38
2019-04-21T23:33:52.896Z,23.98
2019-04-21T23:36:26.246Z,23.62
2019-04-21T23:38:54.939Z,26.12
2019-04-21T23:41:27.290Z,26.97
2019-04-21T23:43:59.138Z,26.02
2019-04-21T23:46:28.468Z,22.77
2019-04-21T23:49:08.593Z,30.12
2019-04-21T23:51:36.626Z,24.72
2019-04-21T23:53:53.825Z,23.73
2019-04-21T23:56:31.524Z,27.62
2019-04-21T23:58:57.978Z,21.40
